sensor_id;sensor_type;location;lat;lon;timestamp;temperature;humidity
21744;DHT22;11034;48.556;9.342;2022-11-28T00:01:33;6.20;99.90
21744;DHT22;11034;48.556;9.342;2022-11-28T00:04:04;6.10;99.90
21744;DHT22;11034;48.556;9.342;2022-11-28T00:06:35;6.10;99.90
21744;DHT22;11034;48.556;9.342;2022-11-28T00:09:04;6.20;99.90
21744;DHT22;11034;48.556;9.342;2022-11-28T00:11:32;6.50;99.90
21744;DHT22;11034;48.556;9.342;2022-11-28T00:14:00;6.60;99.90
21744;DHT22;11034;48.556;9.342;2022-11-28T00:16:28;6.60;99.90
21744;DHT22;11034;48.556;9.342;2022-11-28T00:18:59;6.50;99.90
21744;DHT22;11034;48.556;9.342;2022-11-28T00:21:29;6.40;99.90
21744;DHT22;11034;48.556;9.342;2022-11-28T00:23:59;6.10;99.90
21744;DHT22;11034;48.556;9.342;2022-11-28T00:26:29;5.80;99.90
21744;DHT22;11034;48.556;9.342;2022-11-28T00:28:59;5.60;99.90
21744;DHT22;11034;48.556;9.342;2022-11-28T00:31:31;5.50;99.90
21744;DHT22;11034;48.556;9.342;2022-11-28T00:34:01;5.50;99.90
21744;DHT22;11034;48.556;9.342;2022-11-28T00:36:31;5.50;99.90
21744;DHT22;11034;48.556;9.342;2022-11-28T00:38:59;5.50;99.90
21744;DHT22;11034;48.556;9.342;2022-11-28T00:41:28;5.60;99.90
21744;DHT22;11034;48.556;9.342;2022-11-28T00:43:59;5.50;99.90
21744;DHT22;11034;48.556;9.342;2022-11-28T00:46:28;5.40;99.90
21744;DHT22;11034;48.556;9.342;2022-11-28T00:48:56;5.20;99.90
21744;DHT22;11034;48.556;9.342;2022-11-28T00:51:26;5.20;99.90
21744;DHT22;11034;48.556;9.342;2022-11-28T00:53:57;5.20;99.90
21744;DHT22;11034;48.556;9.342;2022-11-28T00:56:27;5.10;99.90
21744;DHT22;11034;48.556;9.342;2022-11-28T00:58:56;5.10;99.90
21744;DHT22;11034;48.556;9.342;2022-11-28T01:01:26;5.00;99.90
21744;DHT22;11034;48.556;9.342;2022-11-28T01:03:56;4.90;99.90
21744;DHT22;11034;48.556;9.342;2022-11-28T01:06:27;4.90;99.90
21744;DHT22;11034;48.556;9.342;2022-11-28T01:08:57;4.80;99.90
21744;DHT22;11034;48.556;9.342;2022-11-28T01:11:26;4.70;99.90
21744;DHT22;11034;48.556;9.342;2022-11-28T01:13:55;5.00;99.90
21744;DHT22;11034;48.556;9.342;2022-11-28T01:16:23;5.40;99.90
21744;DHT22;11034;48.556;9.342;2022-11-28T01:18:52;5.80;99.90
21744;DHT22;11034;48.556;9.342;2022-11-28T01:21:20;6.00;99.90
21744;DHT22;11034;48.556;9.342;2022-11-28T01:23:48;6.10;99.90
21744;DHT22;11034;48.556;9.342;2022-11-28T01:26:19;6.20;99.90
21744;DHT22;11034;48.556;9.342;2022-11-28T01:28:48;5.90;99.90
21744;DHT22;11034;48.556;9.342;2022-11-28T01:31:17;5.40;99.90
21744;DHT22;11034;48.556;9.342;2022-11-28T01:33:46;5.10;99.90
21744;DHT22;11034;48.556;9.342;2022-11-28T01:36:14;4.70;99.90
21744;DHT22;11034;48.556;9.342;2022-11-28T01:38:43;4.60;99.90
21744;DHT22;11034;48.556;9.342;2022-11-28T01:41:13;4.50;99.90
21744;DHT22;11034;48.556;9.342;2022-11-28T01:46:35;4.40;99.90
21744;DHT22;11034;48.556;9.342;2022-11-28T01:49:07;4.20;99.90
21744;DHT22;11034;48.556;9.342;2022-11-28T01:51:38;4.20;99.90
21744;DHT22;11034;48.556;9.342;2022-11-28T01:54:07;4.20;99.90
21744;DHT22;11034;48.556;9.342;2022-11-28T01:56:40;4.20;99.90
21744;DHT22;11034;48.556;9.342;2022-11-28T01:59:10;4.20;99.90
21744;DHT22;11034;48.556;9.342;2022-11-28T02:01:42;4.10;99.90
21744;DHT22;11034;48.556;9.342;2022-11-28T02:04:11;4.30;99.90
21744;DHT22;11034;48.556;9.342;2022-11-28T02:06:40;4.80;99.90
21744;DHT22;11034;48.556;9.342;2022-11-28T02:09:11;5.00;99.90
21744;DHT22;11034;48.556;9.342;2022-11-28T02:12:05;5.00;99.90
21744;DHT22;11034;48.556;9.342;2022-11-28T02:15:02;4.90;99.90
21744;DHT22;11034;48.556;9.342;2022-11-28T02:17:43;5.10;99.90
21744;DHT22;11034;48.556;9.342;2022-11-28T02:20:54;5.20;99.90
21744;DHT22;11034;48.556;9.342;2022-11-28T02:23:39;5.20;99.90
21744;DHT22;11034;48.556;9.342;2022-11-28T02:32:36;5.20;99.90
21744;DHT22;11034;48.556;9.342;2022-11-28T02:35:11;5.10;99.90
21744;DHT22;11034;48.556;9.342;2022-11-28T02:37:49;5.00;99.90
21744;DHT22;11034;48.556;9.342;2022-11-28T02:40:23;4.80;99.90
21744;DHT22;11034;48.556;9.342;2022-11-28T02:43:01;4.70;99.90
21744;DHT22;11034;48.556;9.342;2022-11-28T02:45:37;4.60;99.90
21744;DHT22;11034;48.556;9.342;2022-11-28T02:48:11;4.50;99.90
21744;DHT22;11034;48.556;9.342;2022-11-28T02:50:45;4.40;99.90
21744;DHT22;11034;48.556;9.342;2022-11-28T02:53:18;4.20;99.90
21744;DHT22;11034;48.556;9.342;2022-11-28T02:55:48;4.10;99.90
21744;DHT22;11034;48.556;9.342;2022-11-28T02:58:18;4.10;99.90
21744;DHT22;11034;48.556;9.342;2022-11-28T03:00:48;4.30;99.90
21744;DHT22;11034;48.556;9.342;2022-11-28T03:03:32;4.60;99.90
21744;DHT22;11034;48.556;9.342;2022-11-28T03:06:07;5.00;99.90
21744;DHT22;11034;48.556;9.342;2022-11-28T03:08:47;5.10;99.90
21744;DHT22;11034;48.556;9.342;2022-11-28T03:11:25;5.10;99.90
21744;DHT22;11034;48.556;9.342;2022-11-28T03:14:04;5.00;99.90
21744;DHT22;11034;48.556;9.342;2022-11-28T03:16:39;4.80;99.90
21744;DHT22;11034;48.556;9.342;2022-11-28T03:19:16;4.60;99.90
21744;DHT22;11034;48.556;9.342;2022-11-28T03:21:52;4.60;99.90
21744;DHT22;11034;48.556;9.342;2022-11-28T03:24:27;4.50;99.90
21744;DHT22;11034;48.556;9.342;2022-11-28T03:27:01;4.50;99.90
21744;DHT22;11034;48.556;9.342;2022-11-28T03:29:36;4.50;99.90
21744;DHT22;11034;48.556;9.342;2022-11-28T03:32:08;4.40;99.90
21744;DHT22;11034;48.556;9.342;2022-11-28T03:34:41;4.30;99.90
21744;DHT22;11034;48.556;9.342;2022-11-28T03:37:13;4.30;99.90
21744;DHT22;11034;48.556;9.342;2022-11-28T03:39:47;4.20;99.90
21744;DHT22;11034;48.556;9.342;2022-11-28T03:42:18;4.20;99.90
21744;DHT22;11034;48.556;9.342;2022-11-28T03:44:54;4.10;99.90
21744;DHT22;11034;48.556;9.342;2022-11-28T03:47:26;4.00;99.90
21744;DHT22;11034;48.556;9.342;2022-11-28T03:50:04;4.00;99.90
21744;DHT22;11034;48.556;9.342;2022-11-28T03:52:38;4.00;99.90
21744;DHT22;11034;48.556;9.342;2022-11-28T03:55:11;4.10;99.90
21744;DHT22;11034;48.556;9.342;2022-11-28T03:57:43;4.10;99.90
21744;DHT22;11034;48.556;9.342;2022-11-28T04:00:15;4.10;99.90
21744;DHT22;11034;48.556;9.342;2022-11-28T04:02:53;4.10;99.90
21744;DHT22;11034;48.556;9.342;2022-11-28T04:05:31;4.10;99.90
21744;DHT22;11034;48.556;9.342;2022-11-28T04:08:11;4.00;99.90
21744;DHT22;11034;48.556;9.342;2022-11-28T04:10:45;4.00;99.90
21744;DHT22;11034;48.556;9.342;2022-11-28T04:13:19;4.00;99.90
21744;DHT22;11034;48.556;9.342;2022-11-28T04:15:54;4.00;99.90
21744;DHT22;11034;48.556;9.342;2022-11-28T04:18:26;4.20;99.90
21744;DHT22;11034;48.556;9.342;2022-11-28T04:21:02;4.20;99.90
21744;DHT22;11034;48.556;9.342;2022-11-28T04:23:32;4.10;99.90
21744;DHT22;11034;48.556;9.342;2022-11-28T04:26:03;4.20;99.90
21744;DHT22;11034;48.556;9.342;2022-11-28T04:28:34;4.20;99.90
21744;DHT22;11034;48.556;9.342;2022-11-28T04:31:05;4.20;99.90
21744;DHT22;11034;48.556;9.342;2022-11-28T04:33:37;4.20;99.90
21744;DHT22;11034;48.556;9.342;2022-11-28T04:36:09;4.30;99.90
21744;DHT22;11034;48.556;9.342;2022-11-28T04:38:39;4.10;99.90
21744;DHT22;11034;48.556;9.342;2022-11-28T04:41:11;4.00;99.90
21744;DHT22;11034;48.556;9.342;2022-11-28T04:43:43;4.40;99.90
21744;DHT22;11034;48.556;9.342;2022-11-28T04:46:17;4.70;99.90
21744;DHT22;11034;48.556;9.342;2022-11-28T04:48:45;4.60;99.90
21744;DHT22;11034;48.556;9.342;2022-11-28T04:51:19;4.30;99.90
21744;DHT22;11034;48.556;9.342;2022-11-28T04:53:53;4.50;99.90
21744;DHT22;11034;48.556;9.342;2022-11-28T04:56:27;4.60;99.90
21744;DHT22;11034;48.556;9.342;2022-11-28T04:58:57;4.30;99.90
21744;DHT22;11034;48.556;9.342;2022-11-28T05:01:28;4.10;99.90
21744;DHT22;11034;48.556;9.342;2022-11-28T05:03:57;4.00;99.90
21744;DHT22;11034;48.556;9.342;2022-11-28T05:06:28;3.90;99.90
21744;DHT22;11034;48.556;9.342;2022-11-28T05:08:57;4.00;99.90
21744;DHT22;11034;48.556;9.342;2022-11-28T05:11:25;4.10;99.90
21744;DHT22;11034;48.556;9.342;2022-11-28T05:13:54;4.10;99.90
21744;DHT22;11034;48.556;9.342;2022-11-28T05:16:22;4.10;99.90
21744;DHT22;11034;48.556;9.342;2022-11-28T05:18:50;4.00;99.90
21744;DHT22;11034;48.556;9.342;2022-11-28T05:21:19;4.00;99.90
21744;DHT22;11034;48.556;9.342;2022-11-28T05:23:48;3.90;99.90
21744;DHT22;11034;48.556;9.342;2022-11-28T05:26:19;3.80;99.90
21744;DHT22;11034;48.556;9.342;2022-11-28T05:28:49;3.90;99.90
21744;DHT22;11034;48.556;9.342;2022-11-28T05:31:19;4.20;99.90
21744;DHT22;11034;48.556;9.342;2022-11-28T05:33:48;4.60;99.90
21744;DHT22;11034;48.556;9.342;2022-11-28T05:36:17;4.90;99.90
21744;DHT22;11034;48.556;9.342;2022-11-28T05:38:45;5.10;99.90
21744;DHT22;11034;48.556;9.342;2022-11-28T05:41:22;5.40;99.90
21744;DHT22;11034;48.556;9.342;2022-11-28T05:43:51;5.60;99.90
21744;DHT22;11034;48.556;9.342;2022-11-28T05:46:19;5.70;99.90
21744;DHT22;11034;48.556;9.342;2022-11-28T05:48:47;5.90;99.90
21744;DHT22;11034;48.556;9.342;2022-11-28T05:51:16;5.90;99.90
21744;DHT22;11034;48.556;9.342;2022-11-28T05:53:44;5.90;99.90
21744;DHT22;11034;48.556;9.342;2022-11-28T05:56:14;6.00;99.90
21744;DHT22;11034;48.556;9.342;2022-11-28T05:58:44;5.90;99.90
21744;DHT22;11034;48.556;9.342;2022-11-28T06:01:13;6.00;99.90
21744;DHT22;11034;48.556;9.342;2022-11-28T06:03:42;6.00;99.90
21744;DHT22;11034;48.556;9.342;2022-11-28T06:06:12;5.90;99.90
21744;DHT22;11034;48.556;9.342;2022-11-28T06:08:41;6.00;99.90
21744;DHT22;11034;48.556;9.342;2022-11-28T06:11:09;6.10;99.90
21744;DHT22;11034;48.556;9.342;2022-11-28T06:13:37;6.10;99.90
21744;DHT22;11034;48.556;9.342;2022-11-28T06:16:11;6.10;99.90
21744;DHT22;11034;48.556;9.342;2022-11-28T06:18:40;6.20;99.90
21744;DHT22;11034;48.556;9.342;2022-11-28T06:21:09;6.10;99.90
21744;DHT22;11034;48.556;9.342;2022-11-28T06:23:38;6.20;99.90
21744;DHT22;11034;48.556;9.342;2022-11-28T06:26:08;6.20;99.90
21744;DHT22;11034;48.556;9.342;2022-11-28T06:28:37;6.30;99.90
21744;DHT22;11034;48.556;9.342;2022-11-28T06:31:10;6.30;99.90
21744;DHT22;11034;48.556;9.342;2022-11-28T06:33:38;6.20;99.90
21744;DHT22;11034;48.556;9.342;2022-11-28T06:36:08;6.10;99.90
21744;DHT22;11034;48.556;9.342;2022-11-28T06:38:36;6.00;99.90
21744;DHT22;11034;48.556;9.342;2022-11-28T06:41:06;6.00;99.90
21744;DHT22;11034;48.556;9.342;2022-11-28T06:43:34;6.00;99.90
21744;DHT22;11034;48.556;9.342;2022-11-28T06:46:03;6.00;99.90
21744;DHT22;11034;48.556;9.342;2022-11-28T06:48:32;6.00;99.90
21744;DHT22;11034;48.556;9.342;2022-11-28T06:51:01;6.10;99.90
21744;DHT22;11034;48.556;9.342;2022-11-28T06:53:30;6.20;99.90
21744;DHT22;11034;48.556;9.342;2022-11-28T06:56:02;6.10;99.90
21744;DHT22;11034;48.556;9.342;2022-11-28T06:58:31;6.10;99.90
21744;DHT22;11034;48.556;9.342;2022-11-28T07:01:05;6.00;99.90
21744;DHT22;11034;48.556;9.342;2022-11-28T07:03:35;5.80;99.90
21744;DHT22;11034;48.556;9.342;2022-11-28T07:06:03;5.70;99.90
21744;DHT22;11034;48.556;9.342;2022-11-28T07:08:32;5.60;99.90
21744;DHT22;11034;48.556;9.342;2022-11-28T07:11:07;5.50;99.90
21744;DHT22;11034;48.556;9.342;2022-11-28T07:13:36;5.50;99.90
21744;DHT22;11034;48.556;9.342;2022-11-28T07:16:05;5.50;99.90
21744;DHT22;11034;48.556;9.342;2022-11-28T07:18:35;5.50;99.90
21744;DHT22;11034;48.556;9.342;2022-11-28T07:21:03;5.60;99.90
21744;DHT22;11034;48.556;9.342;2022-11-28T07:23:31;5.70;99.90
21744;DHT22;11034;48.556;9.342;2022-11-28T07:26:00;5.90;99.90
21744;DHT22;11034;48.556;9.342;2022-11-28T07:28:29;5.90;99.90
21744;DHT22;11034;48.556;9.342;2022-11-28T07:31:00;5.90;99.90
21744;DHT22;11034;48.556;9.342;2022-11-28T07:33:29;5.80;99.90
21744;DHT22;11034;48.556;9.342;2022-11-28T07:36:02;5.80;99.90
21744;DHT22;11034;48.556;9.342;2022-11-28T07:38:31;5.90;99.90
21744;DHT22;11034;48.556;9.342;2022-11-28T07:41:03;6.10;99.90
21744;DHT22;11034;48.556;9.342;2022-11-28T07:43:31;6.20;99.90
21744;DHT22;11034;48.556;9.342;2022-11-28T07:46:03;6.30;99.90
21744;DHT22;11034;48.556;9.342;2022-11-28T07:48:32;6.40;99.90
21744;DHT22;11034;48.556;9.342;2022-11-28T07:51:04;6.60;99.90
21744;DHT22;11034;48.556;9.342;2022-11-28T07:53:33;6.70;99.90
21744;DHT22;11034;48.556;9.342;2022-11-28T07:56:01;6.70;99.90
21744;DHT22;11034;48.556;9.342;2022-11-28T07:58:30;6.80;99.90
21744;DHT22;11034;48.556;9.342;2022-11-28T08:00:58;6.90;99.90
21744;DHT22;11034;48.556;9.342;2022-11-28T08:03:26;6.90;99.90
21744;DHT22;11034;48.556;9.342;2022-11-28T08:06:00;6.90;99.90
21744;DHT22;11034;48.556;9.342;2022-11-28T08:08:29;7.00;99.90
21744;DHT22;11034;48.556;9.342;2022-11-28T08:10:57;6.90;99.90
21744;DHT22;11034;48.556;9.342;2022-11-28T08:13:26;6.70;99.90
21744;DHT22;11034;48.556;9.342;2022-11-28T08:15:54;6.60;99.90
21744;DHT22;11034;48.556;9.342;2022-11-28T08:18:23;6.50;99.90
21744;DHT22;11034;48.556;9.342;2022-11-28T08:21:03;6.40;99.90
21744;DHT22;11034;48.556;9.342;2022-11-28T08:23:33;6.40;99.90
21744;DHT22;11034;48.556;9.342;2022-11-28T08:26:01;6.30;99.90
21744;DHT22;11034;48.556;9.342;2022-11-28T08:28:29;6.30;99.90
21744;DHT22;11034;48.556;9.342;2022-11-28T08:30:58;6.30;99.90
21744;DHT22;11034;48.556;9.342;2022-11-28T08:33:29;6.20;99.90
21744;DHT22;11034;48.556;9.342;2022-11-28T08:35:57;6.20;99.90
21744;DHT22;11034;48.556;9.342;2022-11-28T08:38:28;6.20;99.90
21744;DHT22;11034;48.556;9.342;2022-11-28T08:41:03;6.10;99.90
21744;DHT22;11034;48.556;9.342;2022-11-28T08:43:33;6.00;99.90
21744;DHT22;11034;48.556;9.342;2022-11-28T08:46:02;5.90;99.90
21744;DHT22;11034;48.556;9.342;2022-11-28T08:48:30;5.90;99.90
21744;DHT22;11034;48.556;9.342;2022-11-28T08:51:00;5.90;99.90
21744;DHT22;11034;48.556;9.342;2022-11-28T08:53:30;6.10;99.90
21744;DHT22;11034;48.556;9.342;2022-11-28T08:55:59;6.40;99.90
21744;DHT22;11034;48.556;9.342;2022-11-28T08:58:27;6.90;99.90
21744;DHT22;11034;48.556;9.342;2022-11-28T09:00:55;7.20;99.90
21744;DHT22;11034;48.556;9.342;2022-11-28T09:03:23;7.40;99.90
21744;DHT22;11034;48.556;9.342;2022-11-28T09:05:51;7.50;99.90
21744;DHT22;11034;48.556;9.342;2022-11-28T09:08:20;7.60;99.90
21744;DHT22;11034;48.556;9.342;2022-11-28T09:10:49;7.70;99.90
21744;DHT22;11034;48.556;9.342;2022-11-28T09:13:17;7.70;99.90
21744;DHT22;11034;48.556;9.342;2022-11-28T09:15:46;7.90;99.90
21744;DHT22;11034;48.556;9.342;2022-11-28T09:18:19;8.00;99.90
21744;DHT22;11034;48.556;9.342;2022-11-28T09:20:47;8.10;99.90
21744;DHT22;11034;48.556;9.342;2022-11-28T09:23:15;8.20;99.90
21744;DHT22;11034;48.556;9.342;2022-11-28T09:25:43;8.30;99.90
21744;DHT22;11034;48.556;9.342;2022-11-28T09:28:12;8.40;99.90
21744;DHT22;11034;48.556;9.342;2022-11-28T09:30:42;8.60;99.90
21744;DHT22;11034;48.556;9.342;2022-11-28T09:33:12;8.60;99.90
21744;DHT22;11034;48.556;9.342;2022-11-28T09:35:40;8.60;99.90
21744;DHT22;11034;48.556;9.342;2022-11-28T09:38:09;8.60;99.90
21744;DHT22;11034;48.556;9.342;2022-11-28T09:40:39;8.60;99.90
21744;DHT22;11034;48.556;9.342;2022-11-28T09:43:14;8.60;99.90
21744;DHT22;11034;48.556;9.342;2022-11-28T09:45:44;8.70;99.90
21744;DHT22;11034;48.556;9.342;2022-11-28T09:48:25;8.70;99.90
21744;DHT22;11034;48.556;9.342;2022-11-28T09:50:57;8.70;99.90
21744;DHT22;11034;48.556;9.342;2022-11-28T09:53:33;8.80;99.90
21744;DHT22;11034;48.556;9.342;2022-11-28T09:56:06;8.90;99.90
21744;DHT22;11034;48.556;9.342;2022-11-28T09:58:41;9.00;99.90
21744;DHT22;11034;48.556;9.342;2022-11-28T10:01:16;9.00;99.90
21744;DHT22;11034;48.556;9.342;2022-11-28T10:03:51;8.80;99.90
21744;DHT22;11034;48.556;9.342;2022-11-28T10:06:25;8.70;99.90
21744;DHT22;11034;48.556;9.342;2022-11-28T10:09:20;8.50;99.90
21744;DHT22;11034;48.556;9.342;2022-11-28T10:12:06;8.50;99.90
21744;DHT22;11034;48.556;9.342;2022-11-28T10:14:53;8.60;99.90
21744;DHT22;11034;48.556;9.342;2022-11-28T10:17:32;8.70;99.90
21744;DHT22;11034;48.556;9.342;2022-11-28T10:20:04;8.80;99.90
21744;DHT22;11034;48.556;9.342;2022-11-28T10:22:38;8.90;99.90
21744;DHT22;11034;48.556;9.342;2022-11-28T10:25:13;9.00;99.90
21744;DHT22;11034;48.556;9.342;2022-11-28T10:27:43;9.10;99.90
21744;DHT22;11034;48.556;9.342;2022-11-28T10:30:19;9.20;99.90
21744;DHT22;11034;48.556;9.342;2022-11-28T10:32:54;9.30;99.90
21744;DHT22;11034;48.556;9.342;2022-11-28T10:35:27;9.30;99.90
21744;DHT22;11034;48.556;9.342;2022-11-28T10:37:57;9.40;99.90
21744;DHT22;11034;48.556;9.342;2022-11-28T10:40:33;9.40;99.90
21744;DHT22;11034;48.556;9.342;2022-11-28T10:43:23;9.40;99.90
21744;DHT22;11034;48.556;9.342;2022-11-28T10:46:00;9.40;99.90
21744;DHT22;11034;48.556;9.342;2022-11-28T10:48:39;9.30;99.90
21744;DHT22;11034;48.556;9.342;2022-11-28T10:51:22;9.30;99.90
21744;DHT22;11034;48.556;9.342;2022-11-28T10:54:03;9.30;99.90
21744;DHT22;11034;48.556;9.342;2022-11-28T10:56:42;9.40;99.90
21744;DHT22;11034;48.556;9.342;2022-11-28T10:59:19;9.40;99.90
21744;DHT22;11034;48.556;9.342;2022-11-28T11:01:51;9.50;99.90
21744;DHT22;11034;48.556;9.342;2022-11-28T11:04:22;9.60;99.90
21744;DHT22;11034;48.556;9.342;2022-11-28T11:07:01;9.70;99.90
21744;DHT22;11034;48.556;9.342;2022-11-28T11:09:45;9.80;99.90
21744;DHT22;11034;48.556;9.342;2022-11-28T11:12:19;9.90;99.90
21744;DHT22;11034;48.556;9.342;2022-11-28T11:14:47;9.90;99.90
21744;DHT22;11034;48.556;9.342;2022-11-28T11:17:30;9.90;99.90
21744;DHT22;11034;48.556;9.342;2022-11-28T11:20:24;9.90;99.90
21744;DHT22;11034;48.556;9.342;2022-11-28T11:22:53;9.90;99.90
21744;DHT22;11034;48.556;9.342;2022-11-28T11:25:23;9.80;99.90
21744;DHT22;11034;48.556;9.342;2022-11-28T11:27:53;9.80;99.90
21744;DHT22;11034;48.556;9.342;2022-11-28T11:30:26;9.80;99.90
21744;DHT22;11034;48.556;9.342;2022-11-28T11:32:58;9.70;99.90
21744;DHT22;11034;48.556;9.342;2022-11-28T11:35:28;9.70;99.90
21744;DHT22;11034;48.556;9.342;2022-11-28T11:38:14;9.70;99.90
21744;DHT22;11034;48.556;9.342;2022-11-28T11:40:42;9.70;99.90
21744;DHT22;11034;48.556;9.342;2022-11-28T11:43:26;9.70;99.90
21744;DHT22;11034;48.556;9.342;2022-11-28T11:46:06;9.80;99.90
21744;DHT22;11034;48.556;9.342;2022-11-28T11:48:38;9.90;99.90
21744;DHT22;11034;48.556;9.342;2022-11-28T11:51:20;10.00;99.90
21744;DHT22;11034;48.556;9.342;2022-11-28T11:53:59;10.00;99.90
21744;DHT22;11034;48.556;9.342;2022-11-28T11:56:30;10.10;99.90
21744;DHT22;11034;48.556;9.342;2022-11-28T11:59:03;10.20;99.90
21744;DHT22;11034;48.556;9.342;2022-11-28T12:01:32;10.30;99.90
21744;DHT22;11034;48.556;9.342;2022-11-28T12:04:05;10.30;99.90
21744;DHT22;11034;48.556;9.342;2022-11-28T12:06:55;10.20;99.90
21744;DHT22;11034;48.556;9.342;2022-11-28T12:09:28;10.20;99.90
21744;DHT22;11034;48.556;9.342;2022-11-28T12:12:04;10.20;99.90
21744;DHT22;11034;48.556;9.342;2022-11-28T12:14:35;10.20;99.90
21744;DHT22;11034;48.556;9.342;2022-11-28T12:17:18;10.10;99.90
21744;DHT22;11034;48.556;9.342;2022-11-28T12:20:22;10.10;99.90
21744;DHT22;11034;48.556;9.342;2022-11-28T12:22:57;10.10;99.90
21744;DHT22;11034;48.556;9.342;2022-11-28T12:25:34;10.00;99.90
21744;DHT22;11034;48.556;9.342;2022-11-28T12:28:14;9.90;99.90
21744;DHT22;11034;48.556;9.342;2022-11-28T12:30:52;9.80;99.90
21744;DHT22;11034;48.556;9.342;2022-11-28T12:33:33;9.80;99.90
21744;DHT22;11034;48.556;9.342;2022-11-28T12:36:12;9.80;99.90
21744;DHT22;11034;48.556;9.342;2022-11-28T12:39:02;9.70;99.90
21744;DHT22;11034;48.556;9.342;2022-11-28T12:44:42;9.60;99.90
21744;DHT22;11034;48.556;9.342;2022-11-28T12:47:22;9.60;99.90
21744;DHT22;11034;48.556;9.342;2022-11-28T12:50:02;9.60;99.90
21744;DHT22;11034;48.556;9.342;2022-11-28T12:52:40;9.60;99.90
21744;DHT22;11034;48.556;9.342;2022-11-28T12:55:22;9.60;99.90
21744;DHT22;11034;48.556;9.342;2022-11-28T12:57:58;9.70;99.90
21744;DHT22;11034;48.556;9.342;2022-11-28T13:00:33;9.80;99.90
21744;DHT22;11034;48.556;9.342;2022-11-28T13:03:12;9.80;99.90
21744;DHT22;11034;48.556;9.342;2022-11-28T13:05:55;9.90;99.90
21744;DHT22;11034;48.556;9.342;2022-11-28T13:08:44;9.80;99.90
21744;DHT22;11034;48.556;9.342;2022-11-28T13:11:25;9.90;99.90
21744;DHT22;11034;48.556;9.342;2022-11-28T13:14:00;10.00;99.90
21744;DHT22;11034;48.556;9.342;2022-11-28T13:16:38;10.00;99.90
21744;DHT22;11034;48.556;9.342;2022-11-28T13:19:11;10.00;99.90
21744;DHT22;11034;48.556;9.342;2022-11-28T13:21:45;9.90;99.90
21744;DHT22;11034;48.556;9.342;2022-11-28T13:24:24;9.90;99.90
21744;DHT22;11034;48.556;9.342;2022-11-28T13:27:01;9.70;99.90
21744;DHT22;11034;48.556;9.342;2022-11-28T13:29:36;9.60;99.90
21744;DHT22;11034;48.556;9.342;2022-11-28T13:32:11;9.60;99.90
21744;DHT22;11034;48.556;9.342;2022-11-28T13:34:43;9.70;99.90
21744;DHT22;11034;48.556;9.342;2022-11-28T13:37:16;9.70;99.90
21744;DHT22;11034;48.556;9.342;2022-11-28T13:40:16;9.70;99.90
21744;DHT22;11034;48.556;9.342;2022-11-28T13:42:51;9.70;99.90
21744;DHT22;11034;48.556;9.342;2022-11-28T13:45:34;9.70;99.90
21744;DHT22;11034;48.556;9.342;2022-11-28T13:51:27;9.50;99.90
21744;DHT22;11034;48.556;9.342;2022-11-28T13:57:26;9.40;99.90
21744;DHT22;11034;48.556;9.342;2022-11-28T14:00:04;9.30;99.90
21744;DHT22;11034;48.556;9.342;2022-11-28T14:02:39;9.40;99.90
21744;DHT22;11034;48.556;9.342;2022-11-28T14:05:23;9.30;99.90
21744;DHT22;11034;48.556;9.342;2022-11-28T14:07:53;9.20;99.90
21744;DHT22;11034;48.556;9.342;2022-11-28T14:10:33;9.20;99.90
21744;DHT22;11034;48.556;9.342;2022-11-28T14:13:20;9.10;99.90
21744;DHT22;11034;48.556;9.342;2022-11-28T14:16:01;9.10;99.90
21744;DHT22;11034;48.556;9.342;2022-11-28T14:18:55;8.90;99.90
21744;DHT22;11034;48.556;9.342;2022-11-28T14:21:36;8.90;99.90
21744;DHT22;11034;48.556;9.342;2022-11-28T14:24:14;8.80;99.90
21744;DHT22;11034;48.556;9.342;2022-11-28T14:26:56;8.80;99.90
21744;DHT22;11034;48.556;9.342;2022-11-28T14:29:31;8.70;99.90
21744;DHT22;11034;48.556;9.342;2022-11-28T14:32:01;8.70;99.90
21744;DHT22;11034;48.556;9.342;2022-11-28T14:34:49;8.70;99.90
21744;DHT22;11034;48.556;9.342;2022-11-28T14:43:33;8.60;99.90
21744;DHT22;11034;48.556;9.342;2022-11-28T14:49:16;8.60;99.90
21744;DHT22;11034;48.556;9.342;2022-11-28T14:55:17;8.40;99.90
21744;DHT22;11034;48.556;9.342;2022-11-28T14:57:56;8.40;99.90
21744;DHT22;11034;48.556;9.342;2022-11-28T15:00:26;8.50;99.90
21744;DHT22;11034;48.556;9.342;2022-11-28T15:03:08;8.50;99.90
21744;DHT22;11034;48.556;9.342;2022-11-28T15:05:43;8.40;99.90
21744;DHT22;11034;48.556;9.342;2022-11-28T15:11:16;8.40;99.90
21744;DHT22;11034;48.556;9.342;2022-11-28T15:14:04;8.50;99.90
21744;DHT22;11034;48.556;9.342;2022-11-28T15:16:36;8.40;99.90
21744;DHT22;11034;48.556;9.342;2022-11-28T15:19:19;8.40;99.90
21744;DHT22;11034;48.556;9.342;2022-11-28T15:21:50;8.30;99.90
21744;DHT22;11034;48.556;9.342;2022-11-28T15:24:27;8.40;99.90
21744;DHT22;11034;48.556;9.342;2022-11-28T15:26:57;8.40;99.90
21744;DHT22;11034;48.556;9.342;2022-11-28T15:29:27;8.40;99.90
21744;DHT22;11034;48.556;9.342;2022-11-28T15:31:57;8.40;99.90
21744;DHT22;11034;48.556;9.342;2022-11-28T15:34:27;8.50;99.90
21744;DHT22;11034;48.556;9.342;2022-11-28T15:36:58;8.50;99.90
21744;DHT22;11034;48.556;9.342;2022-11-28T15:39:30;8.50;99.90
21744;DHT22;11034;48.556;9.342;2022-11-28T15:42:03;8.50;99.90
21744;DHT22;11034;48.556;9.342;2022-11-28T15:44:32;8.50;99.90
21744;DHT22;11034;48.556;9.342;2022-11-28T15:47:00;8.60;99.90
21744;DHT22;11034;48.556;9.342;2022-11-28T15:49:31;8.50;99.90
21744;DHT22;11034;48.556;9.342;2022-11-28T15:52:02;8.50;99.90
21744;DHT22;11034;48.556;9.342;2022-11-28T15:54:33;8.40;99.90
21744;DHT22;11034;48.556;9.342;2022-11-28T15:57:02;8.40;99.90
21744;DHT22;11034;48.556;9.342;2022-11-28T15:59:30;8.30;99.90
21744;DHT22;11034;48.556;9.342;2022-11-28T16:02:02;8.40;99.90
21744;DHT22;11034;48.556;9.342;2022-11-28T16:04:31;8.30;99.90
21744;DHT22;11034;48.556;9.342;2022-11-28T16:07:01;8.30;99.90
21744;DHT22;11034;48.556;9.342;2022-11-28T16:09:30;8.30;99.90
21744;DHT22;11034;48.556;9.342;2022-11-28T16:12:02;8.20;99.90
21744;DHT22;11034;48.556;9.342;2022-11-28T16:14:33;8.20;99.90
21744;DHT22;11034;48.556;9.342;2022-11-28T16:17:08;8.10;99.90
21744;DHT22;11034;48.556;9.342;2022-11-28T16:19:41;8.10;99.90
21744;DHT22;11034;48.556;9.342;2022-11-28T16:22:16;8.00;99.90
21744;DHT22;11034;48.556;9.342;2022-11-28T16:24:50;7.90;99.90
21744;DHT22;11034;48.556;9.342;2022-11-28T16:27:32;7.90;99.90
21744;DHT22;11034;48.556;9.342;2022-11-28T16:30:01;7.90;99.90
21744;DHT22;11034;48.556;9.342;2022-11-28T16:32:35;7.90;99.90
21744;DHT22;11034;48.556;9.342;2022-11-28T16:35:11;7.90;99.90
21744;DHT22;11034;48.556;9.342;2022-11-28T16:37:40;7.80;99.90
21744;DHT22;11034;48.556;9.342;2022-11-28T16:40:14;7.80;99.90
21744;DHT22;11034;48.556;9.342;2022-11-28T16:42:51;7.90;99.90
21744;DHT22;11034;48.556;9.342;2022-11-28T16:45:23;8.00;99.90
21744;DHT22;11034;48.556;9.342;2022-11-28T16:47:54;8.00;99.90
21744;DHT22;11034;48.556;9.342;2022-11-28T16:50:27;8.00;99.90
21744;DHT22;11034;48.556;9.342;2022-11-28T16:52:57;8.00;99.90
21744;DHT22;11034;48.556;9.342;2022-11-28T16:55:39;8.00;99.90
21744;DHT22;11034;48.556;9.342;2022-11-28T16:58:10;7.90;99.90